Time;durP1;ratioP1;P1;durP2;ratioP2;P2;SDS_P1;SDS_P2;PMS_P1;PMS_P2;Temp;Humidity;BMP_temperature;BMP_pressure;BME280_temperature;BME280_humidity;BME280_pressure;Samples;Min_cycle;Max_cycle;Signal;HPM_P1;HPM_P2
2021/11/17 02:30:07;;;;;;;18.00;10.85;;;;;;;5.92;68.11;100307.28;10387403;28;20057;-62
2021/11/17 02:35:30;;;;;;;16.05;9.85;;;;;;;5.95;67.74;100311.53;10387420;28;20080;-62
2021/11/17 02:40:50;;;;;;;12.57;7.95;;;;;;;5.94;67.24;100308.06;10386265;28;20128;-62
2021/11/17 02:46:27;;;;;;;11.95;7.13;;;;;;;5.89;66.60;100304.81;10387434;28;20266;-62
2021/11/17 02:51:40;;;;;;;11.10;7.15;;;;;;;5.99;66.94;100313.09;10402292;28;20045;-62
2021/11/17 02:57:22;;;;;;;9.13;6.75;;;;;;;5.81;65.68;100305.97;10387342;28;20059;-62
2021/11/17 03:02:33;;;;;;;10.20;7.65;;;;;;;5.81;66.27;100312.00;10389602;28;20598;-61
2021/11/17 03:08:01;;;;;;;11.57;7.28;;;;;;;5.72;66.67;100303.66;10393609;28;20053;-62
2021/11/17 03:13:17;;;;;;;10.63;7.10;;;;;;;5.67;66.47;100296.06;10381428;28;20072;-62
2021/11/17 03:18:31;;;;;;;10.52;7.57;;;;;;;5.69;66.57;100296.00;10392331;28;20054;-62
2021/11/17 03:24:10;;;;;;;11.05;7.68;;;;;;;5.74;66.61;100297.53;10393691;28;20520;-62
2021/11/17 03:29:36;;;;;;;12.60;7.78;;;;;;;5.81;65.94;100295.59;10393147;28;20128;-62
2021/11/17 03:34:44;;;;;;;9.80;7.00;;;;;;;5.82;66.03;100290.31;10393205;28;20041;-61
2021/11/17 03:39:51;;;;;;;9.82;6.90;;;;;;;5.96;66.00;100292.47;10392072;28;20504;-62
2021/11/17 03:45:08;;;;;;;10.23;6.80;;;;;;;5.83;65.94;100297.22;10392451;28;20051;-61
2021/11/17 03:50:19;;;;;;;11.02;6.88;;;;;;;5.95;66.17;100288.16;10392555;28;20063;-62
2021/11/17 03:55:28;;;;;;;9.40;6.55;;;;;;;5.87;66.35;100290.19;10392074;28;20520;-62
2021/11/17 04:00:55;;;;;;;10.00;6.25;;;;;;;5.81;65.76;100292.97;10390493;28;20305;-61
2021/11/17 04:06:20;;;;;;;10.38;6.97;;;;;;;5.91;65.97;100290.03;10384863;28;20056;-62
2021/11/17 04:11:40;;;;;;;8.80;5.93;;;;;;;5.94;65.93;100289.06;10384857;28;20425;-62
2021/11/17 04:16:56;;;;;;;9.23;5.88;;;;;;;6.00;65.81;100283.66;10384095;28;20053;-61
2021/11/17 04:22:25;;;;;;;8.45;5.70;;;;;;;5.91;65.98;100290.03;10385359;28;20059;-62
2021/11/17 04:27:41;;;;;;;10.02;6.78;;;;;;;5.96;65.79;100290.69;10384331;28;20220;-61
2021/11/17 04:32:48;;;;;;;10.70;6.30;;;;;;;5.90;66.29;100298.69;10384382;28;20144;-62
2021/11/17 04:38:13;;;;;;;8.07;5.40;;;;;;;5.72;66.18;100303.66;10384516;28;22176;-61
2021/11/17 04:43:24;;;;;;;9.82;5.78;;;;;;;5.82;66.59;100315.47;10379967;28;20046;-61
2021/11/17 04:48:44;;;;;;;8.15;5.70;;;;;;;5.83;66.16;100319.72;10384097;28;20156;-62
2021/11/17 04:53:51;;;;;;;10.65;5.72;;;;;;;5.89;65.93;100325.56;10383803;28;20432;-61
2021/11/17 04:59:21;;;;;;;8.07;5.00;;;;;;;5.73;65.61;100321.81;10383407;28;20054;-61
2021/11/17 05:04:42;;;;;;;6.78;4.88;;;;;;;5.71;65.68;100346.97;10383856;28;20057;-62
2021/11/17 05:10:28;;;;;;;6.07;4.30;;;;;;;5.61;65.48;100345.56;10381101;28;20058;-61
2021/11/17 05:15:39;;;;;;;8.13;4.57;;;;;;;5.63;65.66;100348.09;10365625;28;20049;-61
2021/11/17 05:21:08;;;;;;;31.13;17.02;;;;;;;5.61;65.97;100348.16;10391166;28;20498;-62
2021/11/17 05:26:09;;;;;;;62.20;38.20;;;;;;;5.61;65.90;100345.56;10390833;28;20140;-62
2021/11/17 05:31:17;;;;;;;18.05;12.70;;;;;;;5.62;66.19;100356.78;10390113;28;20063;-62
2021/11/17 05:36:48;;;;;;;10.18;6.85;;;;;;;5.62;66.00;100368.00;10389987;28;20048;-62
2021/11/17 05:41:56;;;;;;;9.32;6.00;;;;;;;5.64;66.21;100358.44;10389211;28;20060;-62
2021/11/17 05:47:19;;;;;;;9.82;5.88;;;;;;;5.62;66.14;100354.19;10389746;28;20635;-62
2021/11/17 05:52:46;;;;;;;8.48;5.38;;;;;;;5.65;66.19;100359.28;10388535;28;20505;-62
2021/11/17 05:58:15;;;;;;;7.63;5.25;;;;;;;5.61;66.16;100371.50;10390038;28;20047;-62
2021/11/17 06:03:32;;;;;;;13.05;5.97;;;;;;;5.66;66.09;100369.59;10389600;28;20088;-62
2021/11/17 06:08:33;;;;;;;8.35;5.53;;;;;;;5.69;66.20;100372.09;10389078;28;20058;-62
2021/11/17 06:13:35;;;;;;;9.73;7.18;;;;;;;5.73;66.30;100378.03;10389251;28;20049;-62
2021/11/17 06:18:39;;;;;;;11.55;5.97;;;;;;;5.70;66.20;100391.94;10388824;28;20292;-62
2021/11/17 06:23:53;;;;;;;10.45;5.40;;;;;;;5.62;66.13;100386.16;10386814;28;20049;-62
2021/11/17 06:29:02;;;;;;;9.55;4.85;;;;;;;5.58;66.46;100394.94;10388534;28;20050;-77
2021/11/17 06:34:26;;;;;;;8.90;5.50;;;;;;;5.56;66.27;100399.34;10388458;28;20449;-80
2021/11/17 06:39:29;;;;;;;8.30;5.80;;;;;;;5.68;66.17;100391.16;10388112;28;20063;-80
2021/11/17 06:44:31;;;;;;;7.57;5.50;;;;;;;5.72;65.99;100394.50;10388114;28;20064;-79
2021/11/17 06:49:34;;;;;;;10.98;5.63;;;;;;;5.78;66.28;100402.09;10387362;28;20049;-79
2021/11/17 06:54:35;;;;;;;11.65;5.55;;;;;;;5.83;66.06;100398.44;10387898;28;20063;-78
2021/11/17 06:59:38;;;;;;;11.30;6.03;;;;;;;5.86;66.21;100415.69;10386234;28;20045;-74
2021/11/17 07:04:39;;;;;;;9.20;6.07;;;;;;;5.84;66.12;100410.50;10384816;28;20057;-77
2021/11/17 07:09:42;;;;;;;10.00;5.90;;;;;;;5.80;66.21;100416.72;10384108;28;20634;-74
2021/11/17 07:14:45;;;;;;;11.02;5.75;;;;;;;5.80;66.06;100419.31;10385309;28;20081;-75
2021/11/17 07:19:46;;;;;;;8.82;6.18;;;;;;;5.81;66.08;100427.94;10386553;28;20083;-71
2021/11/17 07:24:48;;;;;;;8.90;6.38;;;;;;;5.72;65.88;100433.41;10386494;28;20046;-69
2021/11/17 07:29:53;;;;;;;9.73;6.63;;;;;;;5.72;65.75;100423.88;10383031;28;20045;-72
2021/11/17 07:34:55;;;;;;;10.20;7.03;;;;;;;5.80;65.76;100424.50;10384352;28;20140;-75
2021/11/17 07:39:57;;;;;;;10.05;7.63;;;;;;;5.81;65.61;100420.16;10383850;28;20095;-72
2021/11/17 07:44:59;;;;;;;9.40;6.47;;;;;;;5.77;65.76;100427.19;10372878;28;20045;-71
2021/11/17 07:50:02;;;;;;;11.55;7.07;;;;;;;5.82;65.50;100434.84;10384419;28;20051;-72
2021/11/17 07:55:06;;;;;;;11.07;7.05;;;;;;;5.75;65.81;100434.19;10384375;28;20077;-73
2021/11/17 08:00:15;;;;;;;9.05;6.85;;;;;;;5.67;66.00;100443.97;10381891;28;20163;-78
2021/11/17 08:05:18;;;;;;;11.13;7.72;;;;;;;5.76;65.95;100441.06;10383861;28;20053;-75
2021/11/17 08:10:25;;;;;;;10.70;7.85;;;;;;;5.78;65.97;100444.47;10383436;28;20312;-72
2021/11/17 08:15:28;;;;;;;11.07;7.90;;;;;;;5.89;65.73;100437.19;10382752;28;20056;-75
2021/11/17 08:20:30;;;;;;;12.48;7.75;;;;;;;5.98;65.72;100439.47;10384252;28;20051;-71
2021/11/17 08:25:35;;;;;;;13.10;8.15;;;;;;;6.13;65.24;100438.97;10383412;28;20057;-66
2021/11/17 08:30:37;;;;;;;15.10;9.25;;;;;;;6.14;65.34;100442.41;10382063;28;20305;-73
2021/11/17 08:35:40;;;;;;;10.95;7.97;;;;;;;6.09;65.52;100447.75;10382878;28;20056;-68
2021/11/17 08:40:47;;;;;;;10.57;7.60;;;;;;;6.18;65.42;100436.22;10382124;28;20136;-73
2021/11/17 08:45:49;;;;;;;11.07;7.80;;;;;;;6.23;65.11;100429.97;10380291;28;20045;-73
2021/11/17 08:50:54;;;;;;;10.90;7.85;;;;;;;6.28;65.01;100441.09;10384575;28;20162;-68
2021/11/17 08:55:56;;;;;;;12.55;8.73;;;;;;;6.47;64.90;100435.25;10390138;28;20152;-71
2021/11/17 09:00:58;;;;;;;17.27;8.82;;;;;;;6.62;64.57;100429.50;10388947;28;20445;-72
2021/11/17 09:06:03;;;;;;;14.05;8.95;;;;;;;6.73;64.42;100448.19;10389392;28;20053;-70
2021/11/17 09:11:08;;;;;;;16.75;10.32;;;;;;;6.88;64.33;100447.59;10390147;28;20568;-74
2021/11/17 09:16:10;;;;;;;14.73;9.63;;;;;;;7.08;63.90;100445.16;10389889;28;20133;-74
2021/11/17 09:21:16;;;;;;;13.85;9.60;;;;;;;7.31;63.43;100457.25;10390944;28;20041;-72
2021/11/17 09:26:22;;;;;;;9.65;7.50;;;;;;;7.46;62.75;100456.69;10390844;28;20059;-72
2021/11/17 09:31:25;;;;;;;8.75;6.10;;;;;;;7.47;62.31;100461.81;10388963;28;20054;-72
2021/11/17 09:36:31;;;;;;;8.30;6.70;;;;;;;7.56;62.33;100466.69;10388743;28;20448;-73
2021/11/17 09:41:40;;;;;;;9.88;6.38;;;;;;;7.43;62.59;100470.66;10387914;28;20132;-73
2021/11/17 09:46:44;;;;;;;10.60;6.60;;;;;;;7.63;62.26;100475.09;10390038;28;20105;-73
2021/11/17 09:51:50;;;;;;;10.55;6.82;;;;;;;7.46;62.21;100467.94;10391085;28;20053;-73
2021/11/17 09:56:52;;;;;;;10.63;5.60;;;;;;;7.53;62.56;100458.97;10390061;28;20072;-68
2021/11/17 10:02:04;;;;;;;10.27;6.05;;;;;;;7.78;61.46;100464.94;10388577;28;20259;-70
2021/11/17 10:13:04;;;;;;;7.38;5.35;;;;;;;7.87;60.92;100477.59;10386363;28;20140;-76
2021/11/17 10:18:19;;;;;;;6.88;4.90;;;;;;;8.10;60.81;100475.81;10387407;28;20053;-74
2021/11/17 10:23:30;;;;;;;7.20;4.55;;;;;;;8.26;60.42;100487.31;10388707;28;20128;-72
2021/11/17 10:28:31;;;;;;;;;;;;;;;8.08;60.27;100475.84;10388892;28;20045;-73
2021/11/17 10:33:41;;;;;;;7.05;4.68;;;;;;;8.23;60.04;100501.31;10385952;28;20027;-74
2021/11/17 10:38:51;;;;;;;6.80;4.93;;;;;;;8.33;59.83;100497.41;10388138;28;20051;-74
2021/11/17 10:44:02;;;;;;;9.57;5.55;;;;;;;8.27;59.90;100502.03;10386603;28;20053;-70
2021/11/17 10:49:10;;;;;;;9.45;5.65;;;;;;;8.44;59.52;100499.59;10386867;28;20041;-74
2021/11/17 10:54:11;;;;;;;8.85;5.63;;;;;;;8.14;60.44;100503.47;10385686;28;20053;-74
2021/11/17 10:59:14;;;;;;;11.60;5.75;;;;;;;8.30;60.39;100502.78;10388465;28;20124;-74
2021/11/17 11:04:23;;;;;;;11.50;5.85;;;;;;;8.32;60.43;100492.28;10386677;28;20065;-73
2021/11/17 11:09:52;;;;;;;11.40;6.07;;;;;;;8.37;60.41;100482.50;10386359;28;20049;-74
2021/11/17 11:15:17;;;;;;;8.45;6.05;;;;;;;8.58;59.89;100473.78;10386257;28;20067;-74
2021/11/17 11:20:20;;;;;;;7.50;5.50;;;;;;;8.57;60.08;100466.84;10386782;28;20080;-74
2021/11/17 11:26:04;;;;;;;10.88;6.78;;;;;;;8.50;59.56;100476.72;10386235;28;20133;-74
2021/11/17 11:31:09;;;;;;;8.43;5.65;;;;;;;8.74;59.93;100474.81;10386096;28;20444;-74
2021/11/17 11:36:11;;;;;;;10.07;6.28;;;;;;;8.92;59.47;100486.19;10386225;28;20128;-74
2021/11/17 11:41:12;;;;;;;8.52;5.60;;;;;;;8.92;59.33;100486.19;10383971;28;20451;-74
2021/11/17 11:46:32;;;;;;;14.15;7.68;;;;;;;8.66;59.61;100479.50;10385169;28;20137;-75
2021/11/17 11:51:49;;;;;;;12.57;7.20;;;;;;;8.41;59.11;100486.66;10383772;28;20427;-75
2021/11/17 11:57:14;;;;;;;9.55;5.93;;;;;;;8.35;60.43;100489.53;10384621;28;20088;-75
2021/11/17 12:02:20;;;;;;;15.55;8.20;;;;;;;8.49;60.33;100476.75;10383979;28;20071;-75
2021/11/17 12:07:53;;;;;;;7.25;4.93;;;;;;;8.57;60.13;100482.50;10383316;28;20478;-74
2021/11/17 12:12:55;;;;;;;5.00;3.85;;;;;;;8.72;59.93;100484.47;10378447;28;20861;-74
2021/11/17 12:18:20;;;;;;;7.78;4.32;;;;;;;8.47;59.72;100484.66;10384172;28;20553;-75
2021/11/17 12:23:33;;;;;;;5.40;3.88;;;;;;;8.52;59.67;100484.47;10382506;28;20425;-75
2021/11/17 12:28:57;;;;;;;5.90;4.13;;;;;;;8.46;60.08;100489.94;10382368;28;20052;-75
2021/11/17 12:34:11;;;;;;;7.43;3.88;;;;;;;8.61;59.93;100484.91;10383895;28;20144;-75
2021/11/17 12:39:17;;;;;;;6.85;3.90;;;;;;;8.87;59.75;100477.72;10383867;28;20324;-75
2021/11/17 12:44:32;;;;;;;5.18;3.85;;;;;;;8.74;59.49;100465.22;10381816;28;20428;-75
2021/11/17 12:49:39;;;;;;;5.95;3.83;;;;;;;8.86;59.83;100471.66;10383681;28;20050;-75
2021/11/17 12:54:57;;;;;;;6.38;4.40;;;;;;;8.88;59.80;100471.59;10383306;28;20164;-75
2021/11/17 13:00:13;;;;;;;7.13;4.78;;;;;;;8.90;59.44;100460.19;10382686;28;20568;-76
2021/11/17 13:05:29;;;;;;;6.00;4.07;;;;;;;8.84;59.49;100458.69;10383202;28;20050;-75
2021/11/17 13:10:39;;;;;;;6.53;4.30;;;;;;;8.93;59.96;100467.88;10382531;28;20494;-76
2021/11/17 13:15:54;;;;;;;6.90;4.22;;;;;;;8.81;60.20;100469.25;10381217;28;20042;-75
2021/11/17 13:21:29;;;;;;;5.45;4.07;;;;;;;8.58;59.97;100463.34;10383086;28;20571;-75
2021/11/17 13:26:42;;;;;;;9.05;5.75;;;;;;;8.67;60.37;100461.19;10382554;28;20053;-76
2021/11/17 13:31:46;;;;;;;6.10;4.32;;;;;;;8.68;60.36;100469.84;10383423;28;20538;-76
2021/11/17 13:36:52;;;;;;;6.47;4.32;;;;;;;8.59;60.57;100465.88;10382938;28;20103;-76
2021/11/17 13:41:56;;;;;;;6.63;4.88;;;;;;;8.52;61.02;100476.66;10389887;28;20131;-75
2021/11/17 13:47:14;;;;;;;9.15;5.78;;;;;;;8.40;62.03;100472.81;10389090;28;20493;-75
2021/11/17 13:52:20;;;;;;;8.90;6.88;;;;;;;8.23;63.11;100487.44;10388669;28;20053;-75
2021/11/17 13:57:22;;;;;;;10.30;6.80;;;;;;;8.21;63.36;100481.44;10390085;28;20129;-75
2021/11/17 14:02:24;;;;;;;10.80;6.63;;;;;;;7.98;64.24;100491.00;10388869;28;20052;-76
2021/11/17 14:07:27;;;;;;;10.70;7.65;;;;;;;7.98;64.72;100491.00;10389296;28;20056;-75
2021/11/17 14:12:29;;;;;;;23.00;15.57;;;;;;;7.90;65.11;100495.69;10389113;28;20235;-76
2021/11/17 14:17:31;;;;;;;14.50;10.50;;;;;;;7.82;65.52;100502.09;10389167;28;20140;-75
2021/11/17 14:22:33;;;;;;;13.40;10.10;;;;;;;7.90;65.64;100497.44;10387166;28;20045;-65
2021/11/17 14:27:38;;;;;;;11.55;8.77;;;;;;;7.95;65.62;100498.09;10388450;28;20502;-75
2021/11/17 14:32:42;;;;;;;18.33;11.15;;;;;;;7.83;65.90;100504.63;10386617;28;20060;-75
2021/11/17 14:37:45;;;;;;;12.40;8.70;;;;;;;7.83;65.90;100509.84;10386124;28;20389;-75
2021/11/17 14:42:47;;;;;;;11.40;8.20;;;;;;;7.83;66.06;100507.25;10387412;28;20272;-76
2021/11/17 14:47:49;;;;;;;9.68;7.45;;;;;;;7.82;65.95;100507.31;10387792;28;20513;-74
2021/11/17 14:52:52;;;;;;;8.63;6.18;;;;;;;7.81;66.05;100501.25;10387488;28;20075;-75
2021/11/17 14:57:55;;;;;;;8.77;5.80;;;;;;;7.84;65.88;100501.13;10387729;28;20103;-76
2021/11/17 15:02:57;;;;;;;9.02;5.88;;;;;;;7.70;66.24;100508.63;10387012;28;20145;-76
2021/11/17 15:07:59;;;;;;;9.88;6.68;;;;;;;7.73;66.24;100505.91;10385450;28;20501;-75
2021/11/17 15:13:03;;;;;;;9.88;7.60;;;;;;;7.75;66.32;100506.69;10386087;28;20057;-75
2021/11/17 15:18:05;;;;;;;13.13;7.05;;;;;;;7.65;66.67;100500.16;10386227;28;20053;-74
2021/11/17 15:23:07;;;;;;;10.60;8.13;;;;;;;7.70;66.25;100499.97;10385833;28;20401;-75
2021/11/17 15:28:09;;;;;;;9.38;6.28;;;;;;;7.67;66.47;100503.53;10386638;28;20425;-75
2021/11/17 15:33:12;;;;;;;9.80;6.70;;;;;;;7.67;66.58;100508.75;10385613;28;20409;-76
2021/11/17 15:38:14;;;;;;;9.98;6.63;;;;;;;7.77;66.14;100514.47;10385353;28;20498;-75
2021/11/17 15:43:18;;;;;;;10.88;8.25;;;;;;;7.78;66.18;100517.00;10385759;28;20912;-75
2021/11/17 15:48:21;;;;;;;20.23;13.55;;;;;;;7.79;66.27;100529.09;10385476;28;20056;-76
2021/11/17 15:53:23;;;;;;;19.33;13.07;;;;;;;7.71;66.52;100527.72;10383400;28;20501;-76
2021/11/17 15:58:25;;;;;;;12.93;10.02;;;;;;;7.69;66.46;100527.75;10384254;28;21098;-75
2021/11/17 16:03:28;;;;;;;11.20;7.53;;;;;;;7.72;66.51;100526.78;10382768;28;20057;-75
2021/11/17 16:08:31;;;;;;;11.55;8.35;;;;;;;7.71;66.48;100530.31;10384448;28;20049;-75
2021/11/17 16:13:34;;;;;;;11.13;7.53;;;;;;;7.65;66.89;100538.38;10385599;28;20133;-75
2021/11/17 16:18:36;;;;;;;12.82;9.02;;;;;;;7.59;67.15;100538.59;10384475;28;20050;-75
2021/11/17 16:28:49;;;;;;;14.88;9.63;;;;;;;7.52;67.63;100547.53;10385718;28;20140;-67
2021/11/17 16:33:52;;;;;;;13.98;9.73;;;;;;;7.58;67.39;100558.56;10382175;28;20136;-67
2021/11/17 16:38:53;;;;;;;20.10;10.70;;;;;;;7.63;67.23;100564.44;10378801;28;20148;-67
2021/11/17 16:43:55;;;;;;;14.02;9.45;;;;;;;7.60;67.27;100581.94;10379481;28;20081;-67
2021/11/17 16:48:57;;;;;;;12.68;9.18;;;;;;;7.53;67.59;100593.50;10381389;28;20523;-67
2021/11/17 16:53:59;;;;;;;15.18;9.55;;;;;;;7.70;67.21;100599.75;10372263;28;20486;-67
2021/11/17 16:59:01;;;;;;;17.10;10.40;;;;;;;7.72;67.14;100610.09;10381465;28;20690;-67
2021/11/17 17:04:03;;;;;;;17.88;12.23;;;;;;;7.55;67.69;100613.34;10381125;28;20049;-67
2021/11/17 17:09:06;;;;;;;41.30;22.33;;;;;;;7.42;68.29;100611.25;10380871;28;20052;-66
2021/11/17 17:14:08;;;;;;;20.38;14.77;;;;;;;7.46;68.29;100629.28;10384908;28;20061;-66
2021/11/17 17:19:18;;;;;;;19.33;13.43;;;;;;;7.51;68.27;100619.56;10390530;28;20045;-66
2021/11/17 17:24:20;;;;;;;21.45;13.73;;;;;;;7.42;68.33;100630.31;10390108;28;20133;-66
2021/11/17 17:29:28;;;;;;;20.35;14.48;;;;;;;7.32;69.10;100630.69;10388011;28;20076;-66
2021/11/17 17:34:31;;;;;;;27.85;16.55;;;;;;;7.39;68.87;100651.22;10389848;28;20103;-66
2021/11/17 17:39:36;;;;;;;23.05;14.27;;;;;;;7.37;68.94;100653.03;10388360;28;20049;-66
2021/11/17 17:44:41;;;;;;;20.48;12.88;;;;;;;7.45;68.85;100658.81;10386935;28;20310;-66
2021/11/17 17:49:43;;;;;;;22.13;14.38;;;;;;;7.52;68.82;100662.91;10389240;28;20042;-66
2021/11/17 17:54:48;;;;;;;21.13;13.50;;;;;;;7.46;69.15;100665.72;10390118;28;20064;-66
2021/11/17 17:59:50;;;;;;;24.17;13.30;;;;;;;7.41;69.25;100675.44;10385237;28;20866;-66
2021/11/17 18:04:52;;;;;;;25.00;15.70;;;;;;;7.41;69.43;100680.66;10388365;28;20405;-66
2021/11/17 18:09:53;;;;;;;22.27;13.80;;;;;;;7.33;69.79;100684.41;10388447;28;20053;-65
2021/11/17 18:14:58;;;;;;;26.70;13.68;;;;;;;7.33;69.88;100689.59;10388411;28;20395;-65
2021/11/17 18:20:00;;;;;;;19.58;13.10;;;;;;;7.32;69.77;100698.34;10388361;28;20050;-66
2021/11/17 18:25:11;;;;;;;22.83;13.50;;;;;;;7.35;69.93;100712.09;10387977;28;20053;-66
2021/11/17 18:30:15;;;;;;;23.60;13.77;;;;;;;7.15;70.18;100717.09;10387999;28;20054;-66
2021/11/17 18:35:17;;;;;;;21.05;13.55;;;;;;;7.18;70.26;100738.66;10386643;28;20053;-66
2021/11/17 18:40:23;;;;;;;21.40;13.35;;;;;;;7.30;70.13;100742.63;10387821;28;20079;-66
2021/11/17 18:45:32;;;;;;;21.20;13.40;;;;;;;7.32;70.27;100752.97;10387499;28;20041;-65
2021/11/17 18:50:41;;;;;;;22.52;13.93;;;;;;;7.31;70.10;100757.31;10387920;28;20056;-66
2021/11/17 18:55:45;;;;;;;22.98;13.40;;;;;;;7.37;69.89;100761.47;10385992;28;20057;-66
2021/11/17 19:01:10;;;;;;;20.17;13.48;;;;;;;7.41;69.82;100766.53;10387315;28;20053;-66
2021/11/17 19:06:13;;;;;;;23.42;12.50;;;;;;;7.45;69.85;100782.91;10387439;28;20057;-66
2021/11/17 19:11:28;;;;;;;19.15;11.90;;;;;;;7.41;69.83;100784.75;10386564;28;20156;-66
2021/11/17 19:16:30;;;;;;;21.02;12.65;;;;;;;7.30;70.16;100783.41;10386584;28;20049;-66
2021/11/17 19:21:33;;;;;;;36.45;24.02;;;;;;;7.33;70.08;100798.91;10386298;28;20533;-66
2021/11/17 19:26:35;;;;;;;20.63;13.07;;;;;;;7.32;70.09;100799.81;10385254;28;20513;-66
2021/11/17 19:31:37;;;;;;;20.70;12.32;;;;;;;7.29;70.32;100795.56;10385233;28;20142;-65
2021/11/17 19:36:41;;;;;;;23.15;12.48;;;;;;;7.31;70.26;100809.38;10383665;28;20482;-66
2021/11/17 19:42:01;;;;;;;19.77;12.93;;;;;;;7.31;70.10;100814.56;10384118;28;20141;-66
2021/11/17 19:47:04;;;;;;;22.00;13.77;;;;;;;7.23;70.31;100824.38;10383035;28;20429;-65
2021/11/17 19:52:11;;;;;;;21.80;13.35;;;;;;;7.15;70.27;100827.22;10382433;28;20064;-66
2021/11/17 19:57:15;;;;;;;25.17;14.18;;;;;;;7.06;70.22;100831.88;10383913;28;20041;-66
2021/11/17 20:02:21;;;;;;;21.88;13.73;;;;;;;7.07;70.32;100833.56;10383007;28;20335;-66
2021/11/17 20:07:25;;;;;;;24.23;14.52;;;;;;;7.04;70.16;100838.88;10384023;28;20041;-66
2021/11/17 20:12:29;;;;;;;22.42;13.88;;;;;;;6.95;70.58;100837.41;10383540;28;20057;-66
2021/11/17 20:17:32;;;;;;;27.70;15.52;;;;;;;6.90;70.80;100841.00;10379550;28;20058;-66
2021/11/17 20:22:35;;;;;;;28.42;16.08;;;;;;;6.79;70.80;100848.31;10382272;28;20060;-66
2021/11/17 20:27:40;;;;;;;28.13;15.90;;;;;;;6.64;71.38;100856.53;10381287;28;20072;-66
2021/11/17 20:32:44;;;;;;;25.20;14.48;;;;;;;6.50;71.67;100853.47;10382298;28;20151;-66
2021/11/17 20:37:50;;;;;;;28.60;14.85;;;;;;;6.54;71.40;100868.94;10382681;28;20057;-66
2021/11/17 20:42:54;;;;;;;28.92;16.42;;;;;;;6.47;71.69;100875.19;10382111;28;20814;-66
2021/11/17 20:47:56;;;;;;;27.58;15.65;;;;;;;6.44;71.65;100890.03;10370622;28;20057;-66
2021/11/17 20:52:59;;;;;;;25.70;15.20;;;;;;;6.37;71.83;100891.94;10390368;28;20350;-66
2021/11/17 20:58:02;;;;;;;32.13;16.33;;;;;;;6.34;71.84;100895.50;10392384;28;20076;-66
2021/11/17 21:03:04;;;;;;;27.35;15.85;;;;;;;6.33;71.71;100890.31;10391762;28;20512;-66
2021/11/17 21:08:07;;;;;;;23.45;13.98;;;;;;;6.40;71.40;100902.28;10391510;28;20060;-66
2021/11/17 21:13:10;;;;;;;27.25;15.18;;;;;;;6.43;71.01;100911.72;10391510;28;20140;-66
2021/11/17 21:18:13;;;;;;;29.13;16.48;;;;;;;6.25;71.50;100916.50;10390624;28;20498;-66
2021/11/17 21:23:18;;;;;;;27.20;16.58;;;;;;;6.19;72.03;100924.44;10390736;28;20046;-66
2021/11/17 21:28:24;;;;;;;25.65;15.65;;;;;;;6.18;72.27;100924.50;10390656;28;20063;-65
2021/11/17 21:33:26;;;;;;;25.92;15.65;;;;;;;6.21;72.27;100927.00;10390180;28;20395;-65
2021/11/17 21:38:28;;;;;;;30.48;14.85;;;;;;;6.27;71.09;100932.06;10387763;28;20045;-65
2021/11/17 21:43:31;;;;;;;25.63;15.20;;;;;;;6.22;71.05;100933.91;10389725;28;20049;-66
2021/11/17 21:48:33;;;;;;;38.58;17.05;;;;;;;6.26;70.60;100928.63;10389388;28;20620;-66
2021/11/17 21:53:35;;;;;;;44.10;20.05;;;;;;;6.20;70.54;100933.09;10390225;28;20437;-66
2021/11/17 21:58:39;;;;;;;51.80;22.00;;;;;;;6.10;70.77;100937.66;10388672;28;20085;-65
2021/11/17 22:03:40;;;;;;;54.22;21.13;;;;;;;6.00;70.59;100938.78;10388880;28;20322;-65
2021/11/17 22:08:44;;;;;;;47.80;19.38;;;;;;;5.89;70.25;100927.81;10389070;28;20052;-65
2021/11/17 22:13:47;;;;;;;55.42;21.70;;;;;;;5.74;70.37;100925.59;10389338;28;20057;-65
2021/11/17 22:18:49;;;;;;;28.30;16.17;;;;;;;5.63;70.82;100937.97;10388989;28;20104;-65
2021/11/17 22:23:51;;;;;;;34.42;18.75;;;;;;;5.64;71.10;100950.06;10388370;28;20664;-65
2021/11/17 22:28:53;;;;;;;39.42;21.17;;;;;;;5.59;71.96;100961.44;10388840;28;20053;-65
2021/11/17 22:33:56;;;;;;;48.20;21.48;;;;;;;5.64;72.20;100955.25;10388363;28;20144;-65
2021/11/17 22:38:58;;;;;;;34.38;18.45;;;;;;;5.60;72.20;100942.38;10388492;28;20079;-65
2021/11/17 22:44:00;;;;;;;38.85;19.50;;;;;;;5.57;72.41;100953.69;10386534;28;20486;-65
2021/11/17 22:49:03;;;;;;;38.33;19.70;;;;;;;5.60;72.72;100942.38;10386748;28;20057;-65
2021/11/17 22:54:05;;;;;;;41.40;21.25;;;;;;;5.60;72.52;100932.84;10385621;28;20148;-65
2021/11/17 22:59:08;;;;;;;42.58;18.80;;;;;;;5.59;72.53;100941.53;10387849;28;20494;-65
2021/11/17 23:04:09;;;;;;;33.58;19.05;;;;;;;5.64;72.70;100963.03;10386902;28;20462;-66
2021/11/17 23:09:11;;;;;;;37.70;19.75;;;;;;;5.69;72.53;100974.16;10386473;28;20064;-66
2021/11/17 23:14:16;;;;;;;38.00;19.98;;;;;;;5.75;72.55;100967.97;10387336;28;20148;-64
2021/11/17 23:19:17;;;;;;;36.78;19.35;;;;;;;5.75;72.25;100979.22;10386899;28;20168;-65
2021/11/17 23:24:21;;;;;;;34.38;18.50;;;;;;;5.75;72.55;100968.84;10384230;28;20538;-65
2021/11/17 23:29:23;;;;;;;33.58;18.13;;;;;;;5.70;72.93;100962.88;10386277;28;20592;-64
2021/11/17 23:34:28;;;;;;;31.50;16.48;;;;;;;5.79;72.69;100980.84;10385529;28;20053;-65
2021/11/17 23:39:29;;;;;;;32.67;16.63;;;;;;;5.85;72.47;100985.91;10386800;28;20060;-64
2021/11/17 23:44:32;;;;;;;28.73;16.02;;;;;;;5.92;72.03;100978.81;10383726;28;20708;-66
2021/11/17 23:49:37;;;;;;;28.20;15.48;;;;;;;5.88;71.55;100972.00;10385881;28;20045;-66
2021/11/17 23:54:39;;;;;;;32.67;17.75;;;;;;;5.98;71.69;100976.91;10385153;28;20045;-66
2021/11/17 23:59:40;;;;;;;30.77;17.27;;;;;;;6.05;71.69;100967.22;10384990;28;20425;-65
